createdAt,value
2018-07-30T00:23:02.934Z,95.90
2018-07-30T00:25:35.853Z,95.90
2018-07-30T00:28:04.681Z,96.00
2018-07-30T00:30:37.798Z,95.80
2018-07-30T00:33:07.109Z,96.00
2018-07-30T00:35:44.357Z,96.00
2018-07-30T00:38:13.271Z,96.40
2018-07-30T00:45:47.770Z,96.00
2018-07-30T00:48:17.074Z,96.00
2018-07-30T00:50:48.793Z,96.40
2018-07-30T00:53:17.746Z,96.50
2018-07-30T00:55:54.633Z,96.50
2018-07-30T00:58:23.817Z,96.60
2018-07-30T01:00:54.129Z,96.80
2018-07-30T01:03:23.673Z,96.50
2018-07-30T01:05:57.456Z,96.00
2018-07-30T01:08:26.233Z,96.10
2018-07-30T01:11:01.484Z,96.20
2018-07-30T01:13:30.571Z,96.10
2018-07-30T01:16:03.266Z,96.30
2018-07-30T01:18:33.105Z,96.40
2018-07-30T01:21:09.348Z,96.10
2018-07-30T01:28:22.609Z,96.60
2018-07-30T01:30:52.083Z,97.10
2018-07-30T01:35:55.454Z,97.50
2018-07-30T01:38:24.363Z,97.50
2018-07-30T01:40:53.065Z,97.50
2018-07-30T01:43:22.100Z,97.50
2018-07-30T01:48:22.685Z,97.50
2018-07-30T01:50:52.288Z,97.70
2018-07-30T01:53:22.934Z,97.70
2018-07-30T01:55:51.824Z,97.50
2018-07-30T01:58:28.278Z,97.70
2018-07-30T02:00:57.141Z,97.90
2018-07-30T02:03:27.917Z,98.00
2018-07-30T02:05:57.288Z,97.70
2018-07-30T02:08:34.019Z,97.90
2018-07-30T02:11:03.006Z,98.10
2018-07-30T02:13:33.113Z,98.30
2018-07-30T02:16:01.986Z,98.30
2018-07-30T02:18:35.656Z,98.30
2018-07-30T02:21:05.105Z,98.00
2018-07-30T02:23:40.971Z,98.10
2018-07-30T02:26:10.451Z,98.00
2018-07-30T02:28:40.992Z,98.60
2018-07-30T02:35:44.950Z,98.40
2018-07-30T02:38:14.442Z,98.20
2018-07-30T02:40:50.958Z,98.30
2018-07-30T02:43:20.106Z,98.30
2018-07-30T02:45:51.391Z,98.70
2018-07-30T02:48:20.716Z,99.20
2018-07-30T02:50:53.398Z,99.40
2018-07-30T02:53:22.205Z,99.50
2018-07-30T02:55:58.708Z,99.70
2018-07-30T02:58:27.721Z,99.60
2018-07-30T03:03:28.480Z,99.90
2018-07-30T03:08:33.684Z,98.20
2018-07-30T03:11:05.488Z,98.40
2018-07-30T03:13:34.941Z,98.70
2018-07-30T03:16:12.687Z,99.10
2018-07-30T03:21:12.316Z,99.30
2018-07-30T03:23:41.059Z,98.70
2018-07-30T03:26:13.581Z,99.00
2018-07-30T03:28:42.731Z,99.20
2018-07-30T03:31:18.831Z,98.80
2018-07-30T03:33:47.668Z,99.00
2018-07-30T03:36:18.333Z,99.20
2018-07-30T03:41:23.572Z,99.50
2018-07-30T03:43:52.529Z,99.20
2018-07-30T03:46:22.948Z,99.10
2018-07-30T03:49:02.668Z,99.20
2018-07-30T03:51:31.524Z,98.90
2018-07-30T03:54:01.667Z,98.80
2018-07-30T03:56:30.746Z,99.10
2018-07-30T03:58:59.480Z,99.20
2018-07-30T04:01:30.375Z,99.30
2018-07-30T04:03:59.413Z,99.40
2018-07-30T04:06:36.042Z,99.60
2018-07-30T04:09:06.637Z,99.70
2018-07-30T04:11:36.290Z,99.40
2018-07-30T04:14:05.148Z,99.20
2018-07-30T04:16:48.873Z,99.20
2018-07-30T04:19:18.082Z,99.70
2018-07-30T04:21:47.412Z,99.80
2018-07-30T04:24:16.627Z,99.60
2018-07-30T04:26:46.400Z,99.90
2018-07-30T04:29:16.588Z,99.90
2018-07-30T04:31:46.605Z,99.50
2018-07-30T04:38:51.730Z,98.90
2018-07-30T04:41:21.772Z,98.70
2018-07-30T04:48:39.822Z,99.20
2018-07-30T04:55:42.830Z,99.20
2018-07-30T04:58:11.664Z,99.50
2018-07-30T05:00:40.524Z,99.80
2018-07-30T05:03:09.918Z,99.30
2018-07-30T05:11:13.175Z,98.60
2018-07-30T05:13:41.949Z,98.90
2018-07-30T05:16:12.435Z,98.90
2018-07-30T05:18:41.587Z,99.00
2018-07-30T05:21:14.333Z,98.80
2018-07-30T05:23:43.104Z,98.80
2018-07-30T05:26:19.906Z,99.40
2018-07-30T05:28:48.689Z,99.90
2018-07-30T05:31:18.830Z,99.90
2018-07-30T05:33:47.982Z,99.90
2018-07-30T05:36:24.506Z,99.90
2018-07-30T05:43:27.860Z,98.50
2018-07-30T05:45:56.886Z,98.50
2018-07-30T05:48:27.592Z,98.40
2018-07-30T05:50:56.380Z,98.90
2018-07-30T05:53:33.594Z,98.90
2018-07-30T05:56:03.214Z,98.30
2018-07-30T05:58:32.160Z,97.70
2018-07-30T06:01:01.578Z,97.70
2018-07-30T06:03:37.480Z,97.60
2018-07-30T06:15:24.464Z,97.80
2018-07-30T06:17:53.213Z,97.70
2018-07-30T06:20:23.609Z,97.70
2018-07-30T06:22:54.678Z,97.80
2018-07-30T06:25:24.166Z,97.70
2018-07-30T06:27:53.150Z,98.30
2018-07-30T06:30:22.496Z,97.80
2018-07-30T06:32:51.263Z,97.80
2018-07-30T06:35:24.207Z,98.20
2018-07-30T06:37:54.169Z,97.90
2018-07-30T06:40:23.250Z,97.80
2018-07-30T06:42:59.568Z,98.30
2018-07-30T06:45:28.720Z,98.30
2018-07-30T06:48:01.506Z,98.00
2018-07-30T06:50:32.995Z,97.90
2018-07-30T06:53:02.097Z,98.20
2018-07-30T06:55:31.171Z,98.00
2018-07-30T06:58:07.553Z,97.90
2018-07-30T07:03:07.301Z,98.60
2018-07-30T07:05:36.689Z,98.20
2018-07-30T07:08:11.234Z,97.90
2018-07-30T07:10:40.568Z,98.30
2018-07-30T07:13:17.975Z,97.90
2018-07-30T07:15:46.945Z,97.80
2018-07-30T07:18:17.712Z,98.20
2018-07-30T07:23:18.621Z,97.80
2018-07-30T07:25:47.436Z,97.60
2018-07-30T07:28:27.047Z,97.80
2018-07-30T07:30:56.450Z,97.50
2018-07-30T07:33:25.288Z,97.60
2018-07-30T07:35:59.376Z,97.70
2018-07-30T07:38:29.152Z,97.70
2018-07-30T07:41:00.691Z,97.50
2018-07-30T07:43:29.403Z,97.50
2018-07-30T07:45:58.696Z,97.50
2018-07-30T07:48:32.613Z,97.40
2018-07-30T07:51:03.421Z,97.30
2018-07-30T07:56:03.573Z,96.90
2018-07-30T07:58:41.203Z,96.90
2018-07-30T08:01:11.004Z,96.80
2018-07-30T08:03:39.871Z,97.00
2018-07-30T08:06:09.437Z,96.80
2018-07-30T08:08:41.652Z,96.90
2018-07-30T08:11:11.565Z,96.80
2018-07-30T08:13:47.785Z,96.40
2018-07-30T08:16:17.137Z,96.70
2018-07-30T08:18:48.586Z,96.30
2018-07-30T08:21:18.952Z,96.50
2018-07-30T08:23:49.792Z,96.20
2018-07-30T08:26:18.535Z,96.00
2018-07-30T08:28:55.393Z,95.60
2018-07-30T08:31:25.335Z,95.40
2018-07-30T08:33:56.163Z,95.30
2018-07-30T08:36:25.337Z,95.70
2018-07-30T08:39:01.848Z,95.10
2018-07-30T08:41:31.334Z,95.30
2018-07-30T08:44:01.202Z,94.80
2018-07-30T08:46:31.167Z,94.70
2018-07-30T08:49:03.942Z,94.40
2018-07-30T08:51:34.678Z,94.60
2018-07-30T08:54:10.639Z,94.40
2018-07-30T08:56:39.770Z,94.00
2018-07-30T08:59:12.952Z,93.80
2018-07-30T09:04:14.621Z,93.60
2018-07-30T09:06:43.477Z,93.80
2018-07-30T09:09:16.715Z,93.40
2018-07-30T09:11:48.345Z,93.30
2018-07-30T09:14:17.791Z,92.80
2018-07-30T09:16:48.169Z,92.50
2018-07-30T09:19:21.161Z,92.20
2018-07-30T09:21:50.195Z,92.00
2018-07-30T09:24:26.406Z,91.80
2018-07-30T09:26:55.709Z,92.00
2018-07-30T09:29:25.287Z,91.30
2018-07-30T09:31:54.204Z,90.80
2018-07-30T09:34:32.058Z,90.10
2018-07-30T09:37:02.087Z,88.50
2018-07-30T09:39:31.060Z,89.90
2018-07-30T09:41:59.876Z,87.40
2018-07-30T09:44:34.183Z,87.60
2018-07-30T09:47:03.054Z,87.50
2018-07-30T09:49:36.098Z,83.10
2018-07-30T09:52:06.432Z,82.60
2018-07-30T09:54:39.593Z,80.90
2018-07-30T09:57:08.407Z,80.40
2018-07-30T09:59:42.028Z,80.00
2018-07-30T10:02:10.805Z,77.80
2018-07-30T10:04:49.313Z,78.70
2018-07-30T10:07:21.111Z,78.10
2018-07-30T10:09:50.134Z,80.20
2018-07-30T10:12:19.170Z,74.20
2018-07-30T10:14:49.432Z,73.00
2018-07-30T10:17:19.113Z,74.40
2018-07-30T10:19:53.520Z,71.00
2018-07-30T10:22:22.686Z,71.90
2018-07-30T10:24:55.092Z,70.90
2018-07-30T10:27:24.350Z,72.50
2018-07-30T10:32:28.884Z,72.20
2018-07-30T10:35:01.218Z,71.60
2018-07-30T10:37:32.158Z,69.80
2018-07-30T10:40:03.577Z,70.00
2018-07-30T10:42:34.173Z,66.40
2018-07-30T10:45:06.794Z,65.70
2018-07-30T10:47:35.833Z,66.50
2018-07-30T10:50:12.652Z,69.70
2018-07-30T10:52:43.180Z,62.60
2018-07-30T10:55:13.274Z,65.40
2018-07-30T10:57:43.393Z,65.70
2018-07-30T11:00:22.178Z,61.10
2018-07-30T11:02:51.912Z,61.30
2018-07-30T11:05:21.985Z,62.90
2018-07-30T11:07:51.256Z,66.40
2018-07-30T11:10:21.248Z,58.10
2018-07-30T11:12:50.332Z,59.10
2018-07-30T11:15:22.210Z,56.50
2018-07-30T11:17:51.765Z,56.70
2018-07-30T11:20:28.363Z,56.90
2018-07-30T11:22:57.279Z,56.90
2018-07-30T11:25:27.297Z,56.20
2018-07-30T11:27:56.422Z,59.00
2018-07-30T11:30:29.353Z,59.30
2018-07-30T11:32:58.226Z,58.70
2018-07-30T11:35:36.250Z,57.90
2018-07-30T11:38:05.262Z,56.50
2018-07-30T11:40:35.328Z,57.70
2018-07-30T11:43:04.461Z,57.00
2018-07-30T11:45:40.982Z,56.40
2018-07-30T11:48:10.220Z,59.60
2018-07-30T11:50:40.654Z,55.40
2018-07-30T11:53:09.729Z,56.40
2018-07-30T11:55:42.610Z,55.60
2018-07-30T11:58:11.442Z,54.70
2018-07-30T12:00:48.629Z,54.90
2018-07-30T12:03:18.178Z,57.10
2018-07-30T12:05:48.550Z,54.30
2018-07-30T12:08:18.102Z,54.90
2018-07-30T12:10:51.338Z,55.30
2018-07-30T12:13:20.340Z,53.60
2018-07-30T12:15:56.674Z,57.20
2018-07-30T12:19:55.974Z,52.80
2018-07-30T12:29:17.526Z,53.70
2018-07-30T12:31:47.214Z,53.90
2018-07-30T12:34:16.986Z,53.70
2018-07-30T12:36:46.804Z,55.20
2018-07-30T12:39:16.099Z,56.10
2018-07-30T12:41:46.302Z,55.90
2018-07-30T12:44:15.206Z,56.50
2018-07-30T12:49:14.586Z,56.80
2018-07-30T12:51:43.502Z,56.10
2018-07-30T12:54:19.168Z,54.00
2018-07-30T12:56:48.222Z,55.90
2018-07-30T12:59:17.811Z,55.00
2018-07-30T13:01:46.729Z,51.50
2018-07-30T13:04:21.137Z,51.50
2018-07-30T13:06:52.025Z,52.80
2018-07-30T13:09:25.159Z,53.90
2018-07-30T13:11:54.768Z,51.50
2018-07-30T13:14:26.707Z,53.60
2018-07-30T13:16:55.698Z,53.00
2018-07-30T13:19:30.630Z,51.40
2018-07-30T13:22:00.544Z,52.80
2018-07-30T13:26:58.827Z,51.80
2018-07-30T13:29:33.642Z,51.00
2018-07-30T13:32:05.274Z,49.40
2018-07-30T13:34:37.444Z,50.30
2018-07-30T13:37:07.345Z,50.40
2018-07-30T13:39:39.877Z,49.60
2018-07-30T13:42:09.518Z,48.60
2018-07-30T13:44:42.427Z,48.80
2018-07-30T13:47:13.165Z,48.40
2018-07-30T13:49:45.743Z,48.90
2018-07-30T13:52:31.176Z,48.50
2018-07-30T13:55:05.549Z,49.00
2018-07-30T14:03:06.213Z,49.50
2018-07-30T14:05:36.671Z,48.70
2018-07-30T14:08:07.826Z,49.90
2018-07-30T14:10:38.552Z,48.80
2018-07-30T14:13:07.653Z,49.60
2018-07-30T14:15:36.996Z,51.70
2018-07-30T14:18:06.054Z,49.40
2018-07-30T14:20:37.160Z,50.10
2018-07-30T14:23:09.269Z,51.00
2018-07-30T14:25:51.087Z,50.20
2018-07-30T14:28:20.538Z,49.70
2018-07-30T14:30:50.342Z,47.70
2018-07-30T14:33:19.219Z,48.20
2018-07-30T14:35:51.005Z,46.00
2018-07-30T14:38:20.355Z,46.70
2018-07-30T14:40:49.527Z,46.10
2018-07-30T14:43:18.332Z,47.20
2018-07-30T14:45:50.676Z,47.50
2018-07-30T14:48:19.652Z,45.80
2018-07-30T14:50:50.173Z,45.30
2018-07-30T14:53:21.030Z,45.30
2018-07-30T14:55:50.282Z,45.20
2018-07-30T14:58:23.122Z,46.00
2018-07-30T15:00:52.332Z,46.50
2018-07-30T15:03:24.941Z,46.10
2018-07-30T15:05:55.204Z,46.30
2018-07-30T15:08:26.663Z,47.30
2018-07-30T15:10:57.110Z,47.60
2018-07-30T15:13:30.374Z,47.50
2018-07-30T15:16:01.483Z,46.80
2018-07-30T15:18:32.773Z,45.80
2018-07-30T15:21:02.919Z,46.00
2018-07-30T15:26:05.303Z,46.50
2018-07-30T15:31:07.445Z,48.70
2018-07-30T15:33:40.252Z,47.70
2018-07-30T15:36:09.697Z,47.70
2018-07-30T15:38:48.825Z,48.70
2018-07-30T15:41:18.661Z,48.50
2018-07-30T15:43:47.558Z,48.10
2018-07-30T15:46:17.079Z,48.10
2018-07-30T15:48:51.118Z,48.80
2018-07-30T15:51:20.684Z,48.50
2018-07-30T15:53:52.091Z,48.50
2018-07-30T15:56:21.139Z,49.10
2018-07-30T15:59:00.002Z,48.60
2018-07-30T16:01:31.388Z,48.40
2018-07-30T16:04:05.300Z,47.60
2018-07-30T16:06:35.927Z,48.30
2018-07-30T16:09:09.263Z,48.00
2018-07-30T16:11:38.540Z,48.30
2018-07-30T16:14:08.676Z,48.40
2018-07-30T16:16:37.599Z,48.30
2018-07-30T16:19:06.629Z,49.00
2018-07-30T16:21:35.764Z,49.10
2018-07-30T16:24:13.361Z,49.50
2018-07-30T16:26:42.641Z,49.40
2018-07-30T16:29:13.632Z,49.70
2018-07-30T16:31:42.688Z,49.70
2018-07-30T16:34:15.570Z,50.00
2018-07-30T16:36:45.497Z,50.50
2018-07-30T16:41:47.004Z,51.80
2018-07-30T16:44:26.584Z,52.10
2018-07-30T16:46:58.258Z,51.60
2018-07-30T16:49:28.852Z,50.20
2018-07-30T16:52:00.359Z,51.00
2018-07-30T16:54:32.918Z,51.60
2018-07-30T16:57:03.602Z,51.80
2018-07-30T16:59:35.552Z,50.90
2018-07-30T17:02:07.104Z,50.90
2018-07-30T17:04:37.077Z,51.80
2018-07-30T17:07:07.388Z,52.60
2018-07-30T17:09:37.827Z,52.20
2018-07-30T17:12:07.209Z,52.20
2018-07-30T17:14:37.264Z,52.20
2018-07-30T17:17:07.607Z,52.10
2018-07-30T17:19:39.393Z,52.50
2018-07-30T17:22:09.746Z,52.80
2018-07-30T17:24:43.190Z,53.30
2018-07-30T17:27:12.979Z,53.60
2018-07-30T17:29:45.150Z,53.80
2018-07-30T17:32:14.203Z,53.50
2018-07-30T17:34:52.365Z,53.70
2018-07-30T17:37:22.254Z,54.50
2018-07-30T17:42:21.390Z,54.60
2018-07-30T17:45:02.062Z,53.70
2018-07-30T17:47:31.502Z,55.60
2018-07-30T17:50:00.687Z,55.70
2018-07-30T17:52:30.676Z,55.30
2018-07-30T17:54:59.748Z,55.60
2018-07-30T17:57:29.572Z,55.60
2018-07-30T18:00:07.564Z,55.40
2018-07-30T18:02:38.738Z,55.50
2018-07-30T18:05:10.526Z,55.50
2018-07-30T18:07:40.890Z,55.50
2018-07-30T18:10:13.593Z,56.80
2018-07-30T18:12:48.620Z,55.70
2018-07-30T18:15:17.691Z,55.80
2018-07-30T18:17:48.571Z,56.00
2018-07-30T18:20:22.106Z,56.20
2018-07-30T18:22:53.007Z,56.70
2018-07-30T18:25:22.210Z,57.00
2018-07-30T18:27:53.572Z,57.60
2018-07-30T18:30:24.727Z,57.00
2018-07-30T18:32:55.311Z,58.60
2018-07-30T18:35:28.186Z,58.70
2018-07-30T18:37:58.481Z,58.40
2018-07-30T18:40:30.745Z,58.50
2018-07-30T18:43:00.236Z,59.20
2018-07-30T18:45:31.630Z,60.50
2018-07-30T18:48:05.081Z,61.10
2018-07-30T18:50:35.875Z,61.30
2018-07-30T18:53:06.774Z,61.00
2018-07-30T18:55:36.197Z,61.70
2018-07-30T18:58:07.897Z,64.40
2018-07-30T19:00:37.752Z,64.40
2018-07-30T19:03:07.797Z,63.80
2018-07-30T19:05:38.395Z,63.10
2018-07-30T19:08:08.811Z,64.30
2018-07-30T19:10:39.594Z,65.30
2018-07-30T19:13:11.024Z,65.30
2018-07-30T19:15:43.274Z,66.60
2018-07-30T19:18:13.686Z,67.10
2018-07-30T19:20:46.334Z,68.30
2018-07-30T19:23:17.889Z,68.30
2018-07-30T19:25:52.716Z,70.50
2018-07-30T19:28:25.608Z,72.00
2018-07-30T19:30:57.678Z,72.00
2018-07-30T19:33:31.170Z,73.30
2018-07-30T19:36:01.417Z,74.00
2018-07-30T19:38:31.455Z,73.80
2018-07-30T19:41:01.823Z,75.60
2018-07-30T19:47:22.701Z,75.30
2018-07-30T19:52:49.655Z,80.20
2018-07-30T21:44:36.798Z,95.20
2018-07-30T21:47:06.088Z,95.80
2018-07-30T21:49:35.284Z,95.70
2018-07-30T21:52:07.642Z,96.10
2018-07-30T21:54:37.008Z,96.20
2018-07-30T21:57:10.253Z,96.40
2018-07-30T21:59:42.753Z,96.00
2018-07-30T22:02:13.347Z,96.30
2018-07-30T22:04:42.242Z,96.20
2018-07-30T22:07:16.304Z,96.50
2018-07-30T22:09:45.207Z,96.90
2018-07-30T22:12:17.821Z,97.00
2018-07-30T22:14:47.000Z,96.90
2018-07-30T22:17:24.179Z,97.10
2018-07-30T22:19:53.405Z,97.20
2018-07-30T22:22:23.260Z,97.10
2018-07-30T22:24:52.284Z,97.10
2018-07-30T22:27:25.186Z,97.30
2018-07-30T22:29:54.352Z,97.50
2018-07-30T22:32:26.491Z,97.30
2018-07-30T22:34:55.899Z,97.70
2018-07-30T22:37:29.592Z,97.40
2018-07-30T22:39:59.592Z,97.40
2018-07-30T22:42:31.960Z,97.60
2018-07-30T22:45:01.669Z,98.10
2018-07-30T22:47:35.224Z,98.50
2018-07-30T22:50:04.444Z,98.80
2018-07-30T22:52:44.966Z,99.00
2018-07-30T22:55:14.206Z,99.10
2018-07-30T22:57:50.351Z,99.40
2018-07-30T23:00:19.775Z,99.50
2018-07-30T23:02:49.940Z,99.80
2018-07-30T23:05:21.230Z,99.90
2018-07-30T23:07:50.476Z,99.90
2018-07-30T23:10:19.318Z,99.90
2018-07-30T23:12:48.212Z,99.90
2018-07-30T23:15:17.442Z,99.90
2018-07-30T23:24:39.221Z,99.90
2018-07-30T23:27:08.204Z,99.90
2018-07-30T23:29:37.131Z,99.90
2018-07-30T23:32:06.139Z,99.90
2018-07-30T23:34:34.844Z,99.90
2018-07-30T23:37:04.235Z,99.90
2018-07-30T23:39:35.291Z,99.90
2018-07-30T23:42:05.481Z,99.90
2018-07-30T23:44:34.495Z,99.90
2018-07-30T23:49:36.962Z,99.90
2018-07-30T23:52:12.366Z,99.90
2018-07-30T23:54:43.335Z,99.90
2018-07-30T23:57:17.456Z,99.90
2018-07-30T23:59:49.502Z,99.90
